sensor_id;sensor_type;location;lat;lon;timestamp;temperature;humidity
7129;DHT22;3606;52.930;8.644;2023-01-10T00:00:50;5.30;99.90
7129;DHT22;3606;52.930;8.644;2023-01-10T00:03:16;5.40;99.90
7129;DHT22;3606;52.930;8.644;2023-01-10T00:05:42;5.40;99.90
7129;DHT22;3606;52.930;8.644;2023-01-10T00:08:13;5.40;99.90
7129;DHT22;3606;52.930;8.644;2023-01-10T00:10:38;5.50;99.90
7129;DHT22;3606;52.930;8.644;2023-01-10T00:13:04;5.60;99.90
7129;DHT22;3606;52.930;8.644;2023-01-10T00:15:54;5.60;99.90
7129;DHT22;3606;52.930;8.644;2023-01-10T00:18:21;5.60;99.90
7129;DHT22;3606;52.930;8.644;2023-01-10T00:20:47;5.50;99.90
7129;DHT22;3606;52.930;8.644;2023-01-10T00:23:13;5.50;99.90
7129;DHT22;3606;52.930;8.644;2023-01-10T00:25:39;5.50;99.90
7129;DHT22;3606;52.930;8.644;2023-01-10T00:28:05;5.60;99.90
7129;DHT22;3606;52.930;8.644;2023-01-10T00:30:48;5.70;99.90
7129;DHT22;3606;52.930;8.644;2023-01-10T00:33:19;5.80;99.90
7129;DHT22;3606;52.930;8.644;2023-01-10T00:35:45;5.80;99.90
7129;DHT22;3606;52.930;8.644;2023-01-10T00:38:11;5.90;99.90
7129;DHT22;3606;52.930;8.644;2023-01-10T00:40:37;5.90;99.90
7129;DHT22;3606;52.930;8.644;2023-01-10T00:43:03;5.90;99.90
7129;DHT22;3606;52.930;8.644;2023-01-10T00:45:47;6.00;99.90
7129;DHT22;3606;52.930;8.644;2023-01-10T00:48:13;5.90;99.90
7129;DHT22;3606;52.930;8.644;2023-01-10T00:50:39;5.90;99.90
7129;DHT22;3606;52.930;8.644;2023-01-10T00:53:04;5.90;99.90
7129;DHT22;3606;52.930;8.644;2023-01-10T00:55:31;5.70;99.90
7129;DHT22;3606;52.930;8.644;2023-01-10T00:57:56;5.60;99.90
7129;DHT22;3606;52.930;8.644;2023-01-10T01:00:22;5.50;99.90
7129;DHT22;3606;52.930;8.644;2023-01-10T01:02:47;5.40;99.90
7129;DHT22;3606;52.930;8.644;2023-01-10T01:05:16;5.40;99.90
7129;DHT22;3606;52.930;8.644;2023-01-10T01:07:42;5.40;99.90
7129;DHT22;3606;52.930;8.644;2023-01-10T01:10:08;5.30;99.90
7129;DHT22;3606;52.930;8.644;2023-01-10T01:12:54;5.30;99.90
7129;DHT22;3606;52.930;8.644;2023-01-10T01:15:20;5.30;99.90
7129;DHT22;3606;52.930;8.644;2023-01-10T01:17:46;5.30;99.90
7129;DHT22;3606;52.930;8.644;2023-01-10T01:20:12;5.30;99.90
7129;DHT22;3606;52.930;8.644;2023-01-10T01:22:38;5.20;99.90
7129;DHT22;3606;52.930;8.644;2023-01-10T01:25:04;5.10;99.90
7129;DHT22;3606;52.930;8.644;2023-01-10T01:27:30;5.20;99.90
7129;DHT22;3606;52.930;8.644;2023-01-10T01:29:56;5.30;99.90
7129;DHT22;3606;52.930;8.644;2023-01-10T01:32:22;5.30;99.90
7129;DHT22;3606;52.930;8.644;2023-01-10T01:34:48;5.40;99.90
7129;DHT22;3606;52.930;8.644;2023-01-10T01:37:14;5.50;99.90
7129;DHT22;3606;52.930;8.644;2023-01-10T01:39:40;5.60;99.90
7129;DHT22;3606;52.930;8.644;2023-01-10T01:47:48;5.70;99.90
7129;DHT22;3606;52.930;8.644;2023-01-10T01:50:18;5.60;99.90
7129;DHT22;3606;52.930;8.644;2023-01-10T01:52:46;5.60;99.90
7129;DHT22;3606;52.930;8.644;2023-01-10T01:55:13;5.60;99.90
7129;DHT22;3606;52.930;8.644;2023-01-10T01:57:39;5.60;99.90
7129;DHT22;3606;52.930;8.644;2023-01-10T02:00:05;5.50;99.90
7129;DHT22;3606;52.930;8.644;2023-01-10T02:02:34;5.50;99.90
7129;DHT22;3606;52.930;8.644;2023-01-10T02:05:10;5.50;99.90
7129;DHT22;3606;52.930;8.644;2023-01-10T02:07:39;5.50;99.90
7129;DHT22;3606;52.930;8.644;2023-01-10T02:10:14;5.40;99.90
7129;DHT22;3606;52.930;8.644;2023-01-10T02:12:41;5.40;99.90
7129;DHT22;3606;52.930;8.644;2023-01-10T02:15:09;5.30;99.90
7129;DHT22;3606;52.930;8.644;2023-01-10T02:17:35;5.20;99.90
7129;DHT22;3606;52.930;8.644;2023-01-10T02:20:05;5.10;99.90
7129;DHT22;3606;52.930;8.644;2023-01-10T02:25:51;4.90;99.90
7129;DHT22;3606;52.930;8.644;2023-01-10T02:37:18;4.90;99.90
7129;DHT22;3606;52.930;8.644;2023-01-10T02:39:48;5.00;99.90
7129;DHT22;3606;52.930;8.644;2023-01-10T02:42:46;5.00;99.90
7129;DHT22;3606;52.930;8.644;2023-01-10T02:45:18;5.00;99.90
7129;DHT22;3606;52.930;8.644;2023-01-10T02:47:45;5.00;99.90
7129;DHT22;3606;52.930;8.644;2023-01-10T02:50:35;5.10;99.90
7129;DHT22;3606;52.930;8.644;2023-01-10T02:53:10;5.10;99.90
7129;DHT22;3606;52.930;8.644;2023-01-10T03:04:17;5.10;99.90
7129;DHT22;3606;52.930;8.644;2023-01-10T03:06:55;5.10;99.90
7129;DHT22;3606;52.930;8.644;2023-01-10T03:12:00;5.10;99.90
7129;DHT22;3606;52.930;8.644;2023-01-10T03:14:27;5.20;99.90
7129;DHT22;3606;52.930;8.644;2023-01-10T03:17:13;5.30;99.90
7129;DHT22;3606;52.930;8.644;2023-01-10T03:19:44;5.30;99.90
7129;DHT22;3606;52.930;8.644;2023-01-10T03:22:12;5.30;99.90
7129;DHT22;3606;52.930;8.644;2023-01-10T03:24:47;5.30;99.90
7129;DHT22;3606;52.930;8.644;2023-01-10T03:27:20;5.40;99.90
7129;DHT22;3606;52.930;8.644;2023-01-10T03:29:58;5.30;99.90
7129;DHT22;3606;52.930;8.644;2023-01-10T03:32:27;5.20;99.90
7129;DHT22;3606;52.930;8.644;2023-01-10T03:34:54;5.20;99.90
7129;DHT22;3606;52.930;8.644;2023-01-10T03:37:33;5.20;99.90
7129;DHT22;3606;52.930;8.644;2023-01-10T03:43:09;5.00;99.90
7129;DHT22;3606;52.930;8.644;2023-01-10T03:48:32;4.90;99.90
7129;DHT22;3606;52.930;8.644;2023-01-10T03:51:03;4.80;99.90
7129;DHT22;3606;52.930;8.644;2023-01-10T03:53:31;4.70;99.90
7129;DHT22;3606;52.930;8.644;2023-01-10T03:55:57;4.70;99.90
7129;DHT22;3606;52.930;8.644;2023-01-10T03:58:24;4.60;99.90
7129;DHT22;3606;52.930;8.644;2023-01-10T04:00:49;4.60;99.90
7129;DHT22;3606;52.930;8.644;2023-01-10T04:03:15;4.70;99.90
7129;DHT22;3606;52.930;8.644;2023-01-10T04:05:41;4.70;99.90
7129;DHT22;3606;52.930;8.644;2023-01-10T04:08:07;4.60;99.90
7129;DHT22;3606;52.930;8.644;2023-01-10T04:10:32;4.50;99.90
7129;DHT22;3606;52.930;8.644;2023-01-10T04:12:59;4.60;99.90
7129;DHT22;3606;52.930;8.644;2023-01-10T04:15:26;4.60;99.90
7129;DHT22;3606;52.930;8.644;2023-01-10T04:17:51;4.60;99.90
7129;DHT22;3606;52.930;8.644;2023-01-10T04:20:17;4.60;99.90
7129;DHT22;3606;52.930;8.644;2023-01-10T04:22:44;4.50;99.90
7129;DHT22;3606;52.930;8.644;2023-01-10T04:25:10;4.50;99.90
7129;DHT22;3606;52.930;8.644;2023-01-10T04:27:36;4.60;99.90
7129;DHT22;3606;52.930;8.644;2023-01-10T04:30:01;4.60;99.90
7129;DHT22;3606;52.930;8.644;2023-01-10T04:32:27;4.60;99.90
7129;DHT22;3606;52.930;8.644;2023-01-10T04:34:53;4.70;99.90
7129;DHT22;3606;52.930;8.644;2023-01-10T04:37:18;4.60;99.90
7129;DHT22;3606;52.930;8.644;2023-01-10T04:39:44;4.60;99.90
7129;DHT22;3606;52.930;8.644;2023-01-10T04:42:10;4.50;99.90
7129;DHT22;3606;52.930;8.644;2023-01-10T04:44:36;4.50;99.90
7129;DHT22;3606;52.930;8.644;2023-01-10T04:47:01;4.40;99.90
7129;DHT22;3606;52.930;8.644;2023-01-10T04:49:27;4.40;99.90
7129;DHT22;3606;52.930;8.644;2023-01-10T04:51:53;4.30;99.90
7129;DHT22;3606;52.930;8.644;2023-01-10T04:54:22;4.20;99.90
7129;DHT22;3606;52.930;8.644;2023-01-10T04:56:48;4.30;99.90
7129;DHT22;3606;52.930;8.644;2023-01-10T04:59:14;4.30;99.90
7129;DHT22;3606;52.930;8.644;2023-01-10T05:01:40;4.30;99.90
7129;DHT22;3606;52.930;8.644;2023-01-10T05:04:06;4.40;99.90
7129;DHT22;3606;52.930;8.644;2023-01-10T05:06:32;4.40;99.90
7129;DHT22;3606;52.930;8.644;2023-01-10T05:08:57;4.30;99.90
7129;DHT22;3606;52.930;8.644;2023-01-10T05:11:23;4.40;99.90
7129;DHT22;3606;52.930;8.644;2023-01-10T05:13:49;4.40;99.90
7129;DHT22;3606;52.930;8.644;2023-01-10T05:16:15;4.40;99.90
7129;DHT22;3606;52.930;8.644;2023-01-10T05:18:41;4.40;99.90
7129;DHT22;3606;52.930;8.644;2023-01-10T05:21:08;4.40;99.90
7129;DHT22;3606;52.930;8.644;2023-01-10T05:23:35;4.40;99.90
7129;DHT22;3606;52.930;8.644;2023-01-10T05:26:21;4.50;99.90
7129;DHT22;3606;52.930;8.644;2023-01-10T05:28:48;4.60;99.90
7129;DHT22;3606;52.930;8.644;2023-01-10T05:31:15;4.70;99.90
7129;DHT22;3606;52.930;8.644;2023-01-10T05:33:49;4.80;99.90
7129;DHT22;3606;52.930;8.644;2023-01-10T05:36:16;4.80;99.90
7129;DHT22;3606;52.930;8.644;2023-01-10T05:38:42;4.80;99.90
7129;DHT22;3606;52.930;8.644;2023-01-10T05:41:08;4.80;99.90
7129;DHT22;3606;52.930;8.644;2023-01-10T05:43:34;4.80;99.90
7129;DHT22;3606;52.930;8.644;2023-01-10T05:45:59;4.70;99.90
7129;DHT22;3606;52.930;8.644;2023-01-10T05:48:25;4.70;99.90
7129;DHT22;3606;52.930;8.644;2023-01-10T05:50:51;4.70;99.90
7129;DHT22;3606;52.930;8.644;2023-01-10T05:53:18;4.80;99.90
7129;DHT22;3606;52.930;8.644;2023-01-10T05:55:52;4.90;99.90
7129;DHT22;3606;52.930;8.644;2023-01-10T05:58:17;4.90;99.90
7129;DHT22;3606;52.930;8.644;2023-01-10T06:00:43;5.00;99.90
7129;DHT22;3606;52.930;8.644;2023-01-10T06:03:08;5.10;99.90
7129;DHT22;3606;52.930;8.644;2023-01-10T06:05:34;5.10;99.90
7129;DHT22;3606;52.930;8.644;2023-01-10T06:07:59;5.20;99.90
7129;DHT22;3606;52.930;8.644;2023-01-10T06:10:25;5.20;99.90
7129;DHT22;3606;52.930;8.644;2023-01-10T06:12:50;5.20;99.90
7129;DHT22;3606;52.930;8.644;2023-01-10T06:15:16;5.20;99.90
7129;DHT22;3606;52.930;8.644;2023-01-10T06:17:42;5.20;99.90
7129;DHT22;3606;52.930;8.644;2023-01-10T06:20:10;5.20;99.90
7129;DHT22;3606;52.930;8.644;2023-01-10T06:22:36;5.30;99.90
7129;DHT22;3606;52.930;8.644;2023-01-10T06:25:04;5.30;99.90
7129;DHT22;3606;52.930;8.644;2023-01-10T06:27:29;5.30;99.90
7129;DHT22;3606;52.930;8.644;2023-01-10T06:29:55;5.30;99.90
7129;DHT22;3606;52.930;8.644;2023-01-10T06:32:21;5.30;99.90
7129;DHT22;3606;52.930;8.644;2023-01-10T06:34:46;5.30;99.90
7129;DHT22;3606;52.930;8.644;2023-01-10T06:37:12;5.30;99.90
7129;DHT22;3606;52.930;8.644;2023-01-10T06:39:37;5.40;99.90
7129;DHT22;3606;52.930;8.644;2023-01-10T06:42:04;5.30;99.90
7129;DHT22;3606;52.930;8.644;2023-01-10T06:44:29;5.30;99.90
7129;DHT22;3606;52.930;8.644;2023-01-10T06:46:55;5.20;99.90
7129;DHT22;3606;52.930;8.644;2023-01-10T06:49:20;5.30;99.90
7129;DHT22;3606;52.930;8.644;2023-01-10T06:51:46;5.30;99.90
7129;DHT22;3606;52.930;8.644;2023-01-10T06:54:11;5.30;99.90
7129;DHT22;3606;52.930;8.644;2023-01-10T06:56:37;5.30;99.90
7129;DHT22;3606;52.930;8.644;2023-01-10T06:59:02;5.30;99.90
7129;DHT22;3606;52.930;8.644;2023-01-10T07:01:28;5.30;99.90
7129;DHT22;3606;52.930;8.644;2023-01-10T07:03:54;5.40;99.90
7129;DHT22;3606;52.930;8.644;2023-01-10T07:06:19;5.40;99.90
7129;DHT22;3606;52.930;8.644;2023-01-10T07:08:46;5.40;99.90
7129;DHT22;3606;52.930;8.644;2023-01-10T07:11:14;5.40;99.90
7129;DHT22;3606;52.930;8.644;2023-01-10T07:13:40;5.40;99.90
7129;DHT22;3606;52.930;8.644;2023-01-10T07:16:11;5.40;99.90
7129;DHT22;3606;52.930;8.644;2023-01-10T07:18:38;5.30;99.90
7129;DHT22;3606;52.930;8.644;2023-01-10T07:21:04;5.30;99.90
7129;DHT22;3606;52.930;8.644;2023-01-10T07:23:30;5.30;99.90
7129;DHT22;3606;52.930;8.644;2023-01-10T07:25:57;5.20;99.90
7129;DHT22;3606;52.930;8.644;2023-01-10T07:28:23;5.10;99.90
7129;DHT22;3606;52.930;8.644;2023-01-10T07:30:49;5.10;99.90
7129;DHT22;3606;52.930;8.644;2023-01-10T07:33:14;5.10;99.90
7129;DHT22;3606;52.930;8.644;2023-01-10T07:35:40;5.10;99.90
7129;DHT22;3606;52.930;8.644;2023-01-10T07:38:06;5.00;99.90
7129;DHT22;3606;52.930;8.644;2023-01-10T07:40:33;5.00;99.90
7129;DHT22;3606;52.930;8.644;2023-01-10T07:43:00;4.90;99.90
7129;DHT22;3606;52.930;8.644;2023-01-10T07:45:27;5.00;99.90
7129;DHT22;3606;52.930;8.644;2023-01-10T07:47:57;5.00;99.90
7129;DHT22;3606;52.930;8.644;2023-01-10T07:50:23;5.10;99.90
7129;DHT22;3606;52.930;8.644;2023-01-10T07:52:48;5.20;99.90
7129;DHT22;3606;52.930;8.644;2023-01-10T07:55:14;5.20;99.90
7129;DHT22;3606;52.930;8.644;2023-01-10T07:57:39;5.30;99.90
7129;DHT22;3606;52.930;8.644;2023-01-10T08:00:05;5.40;99.90
7129;DHT22;3606;52.930;8.644;2023-01-10T08:02:31;5.50;99.90
7129;DHT22;3606;52.930;8.644;2023-01-10T08:04:57;5.50;99.90
7129;DHT22;3606;52.930;8.644;2023-01-10T08:07:22;5.50;99.90
7129;DHT22;3606;52.930;8.644;2023-01-10T08:09:48;5.50;99.90
7129;DHT22;3606;52.930;8.644;2023-01-10T08:12:13;5.30;99.90
7129;DHT22;3606;52.930;8.644;2023-01-10T08:14:39;5.30;99.90
7129;DHT22;3606;52.930;8.644;2023-01-10T08:17:04;5.40;99.90
7129;DHT22;3606;52.930;8.644;2023-01-10T08:19:30;5.50;99.90
7129;DHT22;3606;52.930;8.644;2023-01-10T08:21:56;5.40;99.90
7129;DHT22;3606;52.930;8.644;2023-01-10T08:24:21;5.30;99.90
7129;DHT22;3606;52.930;8.644;2023-01-10T08:26:47;5.20;99.90
7129;DHT22;3606;52.930;8.644;2023-01-10T08:29:12;5.20;99.90
7129;DHT22;3606;52.930;8.644;2023-01-10T08:31:40;5.30;99.90
7129;DHT22;3606;52.930;8.644;2023-01-10T08:34:05;5.40;99.90
7129;DHT22;3606;52.930;8.644;2023-01-10T08:36:31;5.40;99.90
7129;DHT22;3606;52.930;8.644;2023-01-10T08:38:57;5.60;99.90
7129;DHT22;3606;52.930;8.644;2023-01-10T08:41:22;5.80;99.90
7129;DHT22;3606;52.930;8.644;2023-01-10T08:43:49;6.20;99.90
7129;DHT22;3606;52.930;8.644;2023-01-10T08:46:15;6.70;99.90
7129;DHT22;3606;52.930;8.644;2023-01-10T08:48:41;7.00;99.90
7129;DHT22;3606;52.930;8.644;2023-01-10T08:51:08;6.60;99.90
7129;DHT22;3606;52.930;8.644;2023-01-10T08:53:34;6.30;99.90
7129;DHT22;3606;52.930;8.644;2023-01-10T08:56:00;6.50;99.90
7129;DHT22;3606;52.930;8.644;2023-01-10T08:58:26;6.60;99.90
7129;DHT22;3606;52.930;8.644;2023-01-10T09:00:51;6.50;99.90
7129;DHT22;3606;52.930;8.644;2023-01-10T09:03:17;6.30;99.90
7129;DHT22;3606;52.930;8.644;2023-01-10T09:05:43;6.30;99.90
7129;DHT22;3606;52.930;8.644;2023-01-10T09:08:09;6.20;99.90
7129;DHT22;3606;52.930;8.644;2023-01-10T09:10:34;6.20;99.90
7129;DHT22;3606;52.930;8.644;2023-01-10T09:13:00;6.20;99.90
7129;DHT22;3606;52.930;8.644;2023-01-10T09:15:28;6.20;99.90
7129;DHT22;3606;52.930;8.644;2023-01-10T09:17:57;6.30;99.90
7129;DHT22;3606;52.930;8.644;2023-01-10T09:20:24;6.30;99.90
7129;DHT22;3606;52.930;8.644;2023-01-10T09:22:50;6.30;99.90
7129;DHT22;3606;52.930;8.644;2023-01-10T09:25:16;6.30;99.90
7129;DHT22;3606;52.930;8.644;2023-01-10T09:27:41;6.40;99.90
7129;DHT22;3606;52.930;8.644;2023-01-10T09:30:07;6.40;99.90
7129;DHT22;3606;52.930;8.644;2023-01-10T09:32:33;6.50;99.90
7129;DHT22;3606;52.930;8.644;2023-01-10T09:34:58;6.60;99.90
7129;DHT22;3606;52.930;8.644;2023-01-10T09:37:24;6.70;99.90
7129;DHT22;3606;52.930;8.644;2023-01-10T09:39:50;6.80;99.90
7129;DHT22;3606;52.930;8.644;2023-01-10T09:52:57;7.00;99.90
7129;DHT22;3606;52.930;8.644;2023-01-10T09:55:30;7.00;99.90
7129;DHT22;3606;52.930;8.644;2023-01-10T09:58:19;7.00;99.90
7129;DHT22;3606;52.930;8.644;2023-01-10T10:00:57;7.00;99.90
7129;DHT22;3606;52.930;8.644;2023-01-10T10:06:14;7.00;99.90
7129;DHT22;3606;52.930;8.644;2023-01-10T10:08:41;7.00;99.90
7129;DHT22;3606;52.930;8.644;2023-01-10T10:17:08;7.00;99.90
7129;DHT22;3606;52.930;8.644;2023-01-10T10:30:42;7.10;99.90
7129;DHT22;3606;52.930;8.644;2023-01-10T10:36:11;7.20;99.90
7129;DHT22;3606;52.930;8.644;2023-01-10T10:38:42;7.20;99.90
7129;DHT22;3606;52.930;8.644;2023-01-10T10:41:16;7.20;99.90
7129;DHT22;3606;52.930;8.644;2023-01-10T10:43:44;7.30;99.90
7129;DHT22;3606;52.930;8.644;2023-01-10T10:46:13;7.30;99.90
7129;DHT22;3606;52.930;8.644;2023-01-10T10:48:56;7.40;99.90
7129;DHT22;3606;52.930;8.644;2023-01-10T10:51:32;7.40;99.90
7129;DHT22;3606;52.930;8.644;2023-01-10T10:53:58;7.50;99.90
7129;DHT22;3606;52.930;8.644;2023-01-10T10:56:25;7.60;99.90
7129;DHT22;3606;52.930;8.644;2023-01-10T10:58:53;7.60;99.90
7129;DHT22;3606;52.930;8.644;2023-01-10T11:01:21;7.80;99.90
7129;DHT22;3606;52.930;8.644;2023-01-10T11:04:07;8.00;99.90
7129;DHT22;3606;52.930;8.644;2023-01-10T11:06:34;8.20;99.90
7129;DHT22;3606;52.930;8.644;2023-01-10T11:09:02;8.40;99.90
7129;DHT22;3606;52.930;8.644;2023-01-10T11:11:38;8.40;1.00
7129;DHT22;3606;52.930;8.644;2023-01-10T11:14:07;8.40;1.00
7129;DHT22;3606;52.930;8.644;2023-01-10T11:16:36;8.30;1.00
7129;DHT22;3606;52.930;8.644;2023-01-10T11:19:22;8.20;1.00
7129;DHT22;3606;52.930;8.644;2023-01-10T11:21:59;8.20;1.00
7129;DHT22;3606;52.930;8.644;2023-01-10T11:24:35;8.20;1.00
7129;DHT22;3606;52.930;8.644;2023-01-10T11:27:04;8.10;1.00
7129;DHT22;3606;52.930;8.644;2023-01-10T11:29:42;8.30;1.00
7129;DHT22;3606;52.930;8.644;2023-01-10T11:32:47;8.40;1.00
7129;DHT22;3606;52.930;8.644;2023-01-10T11:35:33;8.40;1.00
7129;DHT22;3606;52.930;8.644;2023-01-10T11:40:53;8.50;1.00
7129;DHT22;3606;52.930;8.644;2023-01-10T11:43:36;8.40;1.00
7129;DHT22;3606;52.930;8.644;2023-01-10T11:46:16;8.40;1.00
7129;DHT22;3606;52.930;8.644;2023-01-10T11:51:25;8.20;1.00
7129;DHT22;3606;52.930;8.644;2023-01-10T11:53:58;8.10;1.00
7129;DHT22;3606;52.930;8.644;2023-01-10T11:56:27;8.20;1.00
7129;DHT22;3606;52.930;8.644;2023-01-10T11:58:54;8.10;1.00
7129;DHT22;3606;52.930;8.644;2023-01-10T12:01:51;8.10;1.00
7129;DHT22;3606;52.930;8.644;2023-01-10T12:04:18;8.10;1.00
7129;DHT22;3606;52.930;8.644;2023-01-10T12:06:49;8.00;1.00
7129;DHT22;3606;52.930;8.644;2023-01-10T12:09:40;8.10;1.00
7129;DHT22;3606;52.930;8.644;2023-01-10T12:12:26;8.30;1.00
7129;DHT22;3606;52.930;8.644;2023-01-10T12:14:54;8.30;1.00
7129;DHT22;3606;52.930;8.644;2023-01-10T12:17:27;8.20;1.00
7129;DHT22;3606;52.930;8.644;2023-01-10T12:19:55;8.10;1.00
7129;DHT22;3606;52.930;8.644;2023-01-10T12:22:33;8.30;1.00
7129;DHT22;3606;52.930;8.644;2023-01-10T12:25:04;8.10;1.00
7129;DHT22;3606;52.930;8.644;2023-01-10T12:27:31;8.20;1.00
7129;DHT22;3606;52.930;8.644;2023-01-10T12:30:13;8.30;1.00
7129;DHT22;3606;52.930;8.644;2023-01-10T12:32:45;8.20;1.00
7129;DHT22;3606;52.930;8.644;2023-01-10T12:35:23;8.10;1.00
7129;DHT22;3606;52.930;8.644;2023-01-10T12:38:18;8.10;1.00
7129;DHT22;3606;52.930;8.644;2023-01-10T12:41:04;8.20;1.00
7129;DHT22;3606;52.930;8.644;2023-01-10T12:43:37;8.10;1.00
7129;DHT22;3606;52.930;8.644;2023-01-10T12:46:32;8.10;1.00
7129;DHT22;3606;52.930;8.644;2023-01-10T12:49:15;8.00;1.00
7129;DHT22;3606;52.930;8.644;2023-01-10T12:51:45;8.00;1.00
7129;DHT22;3606;52.930;8.644;2023-01-10T12:54:17;8.00;1.00
7129;DHT22;3606;52.930;8.644;2023-01-10T12:56:44;8.00;1.00
7129;DHT22;3606;52.930;8.644;2023-01-10T12:59:18;7.80;1.00
7129;DHT22;3606;52.930;8.644;2023-01-10T13:01:52;7.90;1.00
7129;DHT22;3606;52.930;8.644;2023-01-10T13:04:20;7.80;1.00
7129;DHT22;3606;52.930;8.644;2023-01-10T13:06:47;7.80;1.00
7129;DHT22;3606;52.930;8.644;2023-01-10T13:11:49;7.80;1.00
7129;DHT22;3606;52.930;8.644;2023-01-10T13:14:18;7.80;1.00
7129;DHT22;3606;52.930;8.644;2023-01-10T13:16:56;7.80;1.00
7129;DHT22;3606;52.930;8.644;2023-01-10T13:19:26;7.80;1.00
7129;DHT22;3606;52.930;8.644;2023-01-10T13:22:16;7.90;1.00
7129;DHT22;3606;52.930;8.644;2023-01-10T13:24:59;7.90;1.00
7129;DHT22;3606;52.930;8.644;2023-01-10T13:27:32;7.80;1.00
7129;DHT22;3606;52.930;8.644;2023-01-10T13:29:58;7.80;1.00
7129;DHT22;3606;52.930;8.644;2023-01-10T13:32:31;7.80;1.00
7129;DHT22;3606;52.930;8.644;2023-01-10T13:35:15;7.80;1.00
7129;DHT22;3606;52.930;8.644;2023-01-10T13:37:43;7.70;1.00
7129;DHT22;3606;52.930;8.644;2023-01-10T13:40:27;7.70;1.00
7129;DHT22;3606;52.930;8.644;2023-01-10T13:51:21;7.60;1.00
7129;DHT22;3606;52.930;8.644;2023-01-10T13:53:51;7.50;1.00
7129;DHT22;3606;52.930;8.644;2023-01-10T13:59:04;7.40;1.00
7129;DHT22;3606;52.930;8.644;2023-01-10T14:01:43;7.40;16.60
7129;DHT22;3606;52.930;8.644;2023-01-10T14:04:34;7.40;16.20
7129;DHT22;3606;52.930;8.644;2023-01-10T14:09:51;7.30;36.60
7129;DHT22;3606;52.930;8.644;2023-01-10T14:12:30;7.30;48.40
7129;DHT22;3606;52.930;8.644;2023-01-10T14:15:04;7.20;36.70
7129;DHT22;3606;52.930;8.644;2023-01-10T14:17:32;7.20;61.40
7129;DHT22;3606;52.930;8.644;2023-01-10T14:20:05;7.20;76.70
7129;DHT22;3606;52.930;8.644;2023-01-10T14:22:35;7.10;62.90
7129;DHT22;3606;52.930;8.644;2023-01-10T14:25:04;7.10;70.90
7129;DHT22;3606;52.930;8.644;2023-01-10T14:27:42;7.10;67.80
7129;DHT22;3606;52.930;8.644;2023-01-10T14:30:36;7.10;96.30
7129;DHT22;3606;52.930;8.644;2023-01-10T14:33:12;7.10;97.60
7129;DHT22;3606;52.930;8.644;2023-01-10T14:35:43;7.10;90.80
7129;DHT22;3606;52.930;8.644;2023-01-10T14:38:19;7.10;99.90
7129;DHT22;3606;52.930;8.644;2023-01-10T14:40:49;7.00;99.90
7129;DHT22;3606;52.930;8.644;2023-01-10T14:43:18;7.00;99.90
7129;DHT22;3606;52.930;8.644;2023-01-10T14:46:07;6.90;99.90
7129;DHT22;3606;52.930;8.644;2023-01-10T14:48:49;6.90;99.90
7129;DHT22;3606;52.930;8.644;2023-01-10T14:51:24;6.90;99.90
7129;DHT22;3606;52.930;8.644;2023-01-10T14:54:02;6.80;99.90
7129;DHT22;3606;52.930;8.644;2023-01-10T14:56:39;6.80;99.90
7129;DHT22;3606;52.930;8.644;2023-01-10T14:59:28;6.80;99.90
7129;DHT22;3606;52.930;8.644;2023-01-10T15:01:59;6.80;99.90
7129;DHT22;3606;52.930;8.644;2023-01-10T15:04:29;6.80;99.90
7129;DHT22;3606;52.930;8.644;2023-01-10T15:06:59;6.70;99.90
7129;DHT22;3606;52.930;8.644;2023-01-10T15:09:28;6.70;99.90
7129;DHT22;3606;52.930;8.644;2023-01-10T15:11:56;6.70;99.90
7129;DHT22;3606;52.930;8.644;2023-01-10T15:14:24;6.70;99.90
7129;DHT22;3606;52.930;8.644;2023-01-10T15:16:54;6.60;99.90
7129;DHT22;3606;52.930;8.644;2023-01-10T15:19:22;6.60;99.90
7129;DHT22;3606;52.930;8.644;2023-01-10T15:21:49;6.60;99.90
7129;DHT22;3606;52.930;8.644;2023-01-10T15:24:34;6.60;99.90
7129;DHT22;3606;52.930;8.644;2023-01-10T15:27:03;6.60;99.90
7129;DHT22;3606;52.930;8.644;2023-01-10T15:29:29;6.60;99.90
7129;DHT22;3606;52.930;8.644;2023-01-10T15:32:09;6.60;99.90
7129;DHT22;3606;52.930;8.644;2023-01-10T15:34:36;6.50;99.90
7129;DHT22;3606;52.930;8.644;2023-01-10T15:37:05;6.60;99.90
7129;DHT22;3606;52.930;8.644;2023-01-10T15:39:36;6.50;99.90
7129;DHT22;3606;52.930;8.644;2023-01-10T15:42:08;6.50;99.90
7129;DHT22;3606;52.930;8.644;2023-01-10T15:44:40;6.60;99.90
7129;DHT22;3606;52.930;8.644;2023-01-10T15:49:53;6.50;99.90
7129;DHT22;3606;52.930;8.644;2023-01-10T15:52:21;6.50;99.90
7129;DHT22;3606;52.930;8.644;2023-01-10T15:54:47;6.50;99.90
7129;DHT22;3606;52.930;8.644;2023-01-10T15:57:31;6.50;99.90
7129;DHT22;3606;52.930;8.644;2023-01-10T15:59:57;6.60;99.90
7129;DHT22;3606;52.930;8.644;2023-01-10T16:02:28;6.60;94.20
7129;DHT22;3606;52.930;8.644;2023-01-10T16:04:56;6.50;95.20
7129;DHT22;3606;52.930;8.644;2023-01-10T16:07:31;6.50;95.20
7129;DHT22;3606;52.930;8.644;2023-01-10T16:10:03;6.50;93.60
7129;DHT22;3606;52.930;8.644;2023-01-10T16:12:35;6.50;80.60
7129;DHT22;3606;52.930;8.644;2023-01-10T16:15:22;6.60;94.60
7129;DHT22;3606;52.930;8.644;2023-01-10T16:17:49;6.50;86.60
7129;DHT22;3606;52.930;8.644;2023-01-10T16:20:38;6.50;91.80
7129;DHT22;3606;52.930;8.644;2023-01-10T16:23:02;6.50;90.40
7129;DHT22;3606;52.930;8.644;2023-01-10T16:25:34;6.60;82.80
7129;DHT22;3606;52.930;8.644;2023-01-10T16:28:01;6.60;62.70
7129;DHT22;3606;52.930;8.644;2023-01-10T16:30:29;6.60;58.90
7129;DHT22;3606;52.930;8.644;2023-01-10T16:32:55;6.60;36.30
7129;DHT22;3606;52.930;8.644;2023-01-10T16:35:23;6.60;11.80
7129;DHT22;3606;52.930;8.644;2023-01-10T16:37:56;6.70;34.60
7129;DHT22;3606;52.930;8.644;2023-01-10T16:40:28;6.70;1.00
7129;DHT22;3606;52.930;8.644;2023-01-10T16:42:57;6.70;1.00
7129;DHT22;3606;52.930;8.644;2023-01-10T16:45:41;6.70;1.00
7129;DHT22;3606;52.930;8.644;2023-01-10T16:48:07;6.70;1.00
7129;DHT22;3606;52.930;8.644;2023-01-10T16:50:33;6.70;1.00
7129;DHT22;3606;52.930;8.644;2023-01-10T16:52:59;6.70;1.00
7129;DHT22;3606;52.930;8.644;2023-01-10T16:55:32;6.80;1.00
7129;DHT22;3606;52.930;8.644;2023-01-10T16:58:00;6.70;1.00
7129;DHT22;3606;52.930;8.644;2023-01-10T17:00:26;6.70;1.00
7129;DHT22;3606;52.930;8.644;2023-01-10T17:02:52;6.70;1.00
7129;DHT22;3606;52.930;8.644;2023-01-10T17:05:17;6.70;1.00
7129;DHT22;3606;52.930;8.644;2023-01-10T17:07:43;6.80;1.00
7129;DHT22;3606;52.930;8.644;2023-01-10T17:10:09;6.80;1.00
7129;DHT22;3606;52.930;8.644;2023-01-10T17:12:36;6.80;1.00
7129;DHT22;3606;52.930;8.644;2023-01-10T17:15:05;6.80;1.00
7129;DHT22;3606;52.930;8.644;2023-01-10T17:17:31;6.80;1.00
7129;DHT22;3606;52.930;8.644;2023-01-10T17:19:56;6.90;1.00
7129;DHT22;3606;52.930;8.644;2023-01-10T17:22:22;6.90;1.00
7129;DHT22;3606;52.930;8.644;2023-01-10T17:24:47;6.90;1.00
7129;DHT22;3606;52.930;8.644;2023-01-10T17:27:13;6.90;1.00
7129;DHT22;3606;52.930;8.644;2023-01-10T17:29:39;6.80;1.00
7129;DHT22;3606;52.930;8.644;2023-01-10T17:32:05;6.90;1.00
7129;DHT22;3606;52.930;8.644;2023-01-10T17:34:32;6.90;1.00
7129;DHT22;3606;52.930;8.644;2023-01-10T17:37:02;6.90;1.00
7129;DHT22;3606;52.930;8.644;2023-01-10T17:39:28;6.90;1.00
7129;DHT22;3606;52.930;8.644;2023-01-10T17:41:53;6.80;1.00
7129;DHT22;3606;52.930;8.644;2023-01-10T17:44:19;6.80;1.00
7129;DHT22;3606;52.930;8.644;2023-01-10T17:46:44;6.80;1.00
7129;DHT22;3606;52.930;8.644;2023-01-10T17:49:10;6.70;1.00
7129;DHT22;3606;52.930;8.644;2023-01-10T17:51:36;6.60;1.00
7129;DHT22;3606;52.930;8.644;2023-01-10T17:54:01;6.50;1.00
7129;DHT22;3606;52.930;8.644;2023-01-10T17:56:27;6.40;64.70
7129;DHT22;3606;52.930;8.644;2023-01-10T17:58:52;6.30;99.90
7129;DHT22;3606;52.930;8.644;2023-01-10T18:01:23;6.20;99.90
7129;DHT22;3606;52.930;8.644;2023-01-10T18:03:49;6.20;99.90
7129;DHT22;3606;52.930;8.644;2023-01-10T18:06:16;6.20;99.90
7129;DHT22;3606;52.930;8.644;2023-01-10T18:08:42;6.10;99.90
7129;DHT22;3606;52.930;8.644;2023-01-10T18:11:08;6.10;99.90